Home > Products > Valid Products > MTR

000
SAUS46 KPDT 241358
MTRMEH
METAR KMEH 241356Z AUTO 00000KT 9SM OVC011 00/M01 A3033 RMK AO2
SLP291 T00001011





000
SAUS46 KPDT 241308
MTRMEH
SPECI KMEH 241307Z AUTO 00000KT 8SM BKN010 00/M01 A3031 RMK AO2 CIG
009V014 T00001011





000
SAUS46 KPDT 241257
MTRMEH
METAR KMEH 241256Z AUTO 00000KT 9SM SCT012 BKN019 00/M01 A3031 RMK
AO2 SLP285 T00001011





000
SAUS46 KPDT 241157
MTRMEH
METAR KMEH 241156Z AUTO 00000KT 10SM OVC010 01/00 A3030 RMK AO2 CIG
008V014 SLP279 70014 T00110000 10022 21006 50009





000
SAUS46 KPDT 241129
MTRMEH
SPECI KMEH 241128Z AUTO 00000KT 10SM BKN011 01/M01 A3030 RMK AO2
T00111006





000
SAUS46 KPDT 241114
MTRMEH
SPECI KMEH 241113Z AUTO VRB03KT 10SM SCT011 BKN017 00/M01 A3030 RMK
AO2 T00001011





000
SAUS46 KPDT 241058
MTRMEH
METAR KMEH 241056Z AUTO 00000KT 10SM SCT010 00/M01 A3030 RMK AO2
SLP280 T00001011





000
SAUS46 KPDT 240957
MTRMEH
METAR KMEH 240956Z AUTO 00000KT 10SM CLR 01/M01 A3029 RMK AO2 SLP275
T00111006





000
SAUS46 KPDT 240857
MTRMEH
METAR KMEH 240856Z AUTO 00000KT 10SM FEW017 02/00 A3027 RMK AO2
SLP266 T00170000 51012





000
SAUS46 KPDT 240756
MTRMEH
METAR KMEH 240756Z AUTO 00000KT 10SM CLR 02/M01 A3025 RMK AO2 SLP260
T00171006 400610011





000
SAUS46 KPDT 240658
MTRMEH
METAR KMEH 240656Z AUTO VRB03KT 10SM FEW020 FEW026 FEW032 02/M01
A3024 RMK AO2 SLP257 T00171006





000
SAUS46 KPDT 240557
MTRMEH
METAR KMEH 240556Z AUTO VRB03KT 10SM BKN017 OVC023 02/00 A3023 RMK
AO2 SLP253 60009 T00220000 10039 20022 53019





000
SAUS46 KPDT 240456
MTRMEH
METAR KMEH 240456Z AUTO VRB05KT 10SM OVC015 03/01 A3020 RMK AO2
SLP246 T00280006





000
SAUS46 KPDT 240425
MTRMEH
SPECI KMEH 240423Z AUTO 10SM BKN013 BKN021 OVC025 03/01 A3018 RMK
AO2 T00280011





000
SAUS46 KPDT 240425
MTRMEH
SPECI KMEH 240423Z AUTO 10SM BKN013 BKN021 OVC025 03/01 A3018 RMK
AO2 T00280011





000
SAUS46 KPDT 240357
MTRMEH
METAR KMEH 240356Z AUTO 10SM SCT013 OVC024 03/01 A3018 RMK AO2
SLP238 T00280011





000
SAUS46 KPDT 240256
MTRMEH
METAR KMEH 240256Z AUTO VRB05KT 10SM OVC011 03/02 A3016 RMK AO2
SLP231 60009 T00280017 53008





000
SAUS46 KPDT 240239
MTRMEH
SPECI KMEH 240239Z AUTO 00000KT 10SM OVC011 03/02 A3016 RMK AO2 CIG
006V013 T00280017





000
SAUS46 KPDT 240203
MTRMEH
SPECI KMEH 240203Z AUTO VRB04KT 10SM OVC009 03/02 A3015 RMK AO2 CIG
006V012 T00280022





000
SAUS46 KPDT 240156
MTRMEH
METAR KMEH 240156Z AUTO VRB03KT 10SM OVC010 03/02 A3015 RMK AO2
RAE50 CIG 006V012 SLP227 P0004 T00280017





000
SAUS46 KPDT 240156
MTRMEH
METAR KMEH 240156Z AUTO VRB03KT 10SM OVC010 03/02 A3015 RMK AO2
RAE50 CIG 006V012 SLP227 P0004 T00280017





000
SAUS46 KPDT 240139 COR
MTRMEH
SPECI KMEH 240132Z AUTO 5SM -RA BR BKN011 OVC017 03/02 A3014 RMK AO2
P0003 T00280017





000
SAUS46 KPDT 240120
MTRMEH
SPECI KMEH 240120Z AUTO VRB05KT 7SM -RA SCT011 BKN018 OVC029 03/02
A3014 RMK AO2 P0002 T00280017





000
SAUS46 KPDT 240056
MTRMEH
METAR KMEH 240056Z AUTO VRB05KT 5SM RA OVC034 04/M01 A3012 RMK AO2
SLP217 P0005 T00391006





000
SAUS46 KPDT 232357
MTRMEH
METAR KMEH 232356Z AUTO 5SM RA OVC042 03/00 A3013 RMK AO2
RAB02E37B47SNB37E47 SLP221 P0005 60005 T00280000 10061 20017 55004





000
SAUS46 KPDT 232342
MTRMEH
SPECI KMEH 232342Z AUTO 00000KT 4SM -SN OVC043 02/M01 A3013 RMK AO2
RAB02E37SNB37 P0003 T00221006





000
SAUS46 KPDT 232339 COR
MTRMEH
SPECI KMEH 232332Z AUTO 00000KT 2SM RA BKN035 OVC047 03/M01 A3013
RMK AO2 RAB02 P0002 T00331011





000
SAUS46 KPDT 232257
MTRMEH
METAR KMEH 232256Z AUTO VRB03KT 10SM OVC055 05/M03 A3012 RMK AO2
SLP215 T00501028





000
SAUS46 KPDT 232157
MTRMEH
METAR KMEH 232156Z AUTO VRB04KT 10SM BKN080 05/M02 A3013 RMK AO2
SLP217 T00501022





000
SAUS46 KPDT 232157
MTRMEH
METAR KMEH 232156Z AUTO VRB04KT 10SM BKN080 05/M02 A3013 RMK AO2
SLP217 T00501022





000
SAUS46 KPDT 232057
MTRMEH
METAR KMEH 232056Z AUTO 00000KT 10SM FEW090 05/M02 A3015 RMK AO2
SLP225 T00501017 56015





000
SAUS46 KPDT 231956
MTRMEH
METAR KMEH 231956Z AUTO 10SM BKN110 06/M02 A3016 RMK AO2 SLP226
T00561017





000
SAUS46 KPDT 231857
MTRMEH
METAR KMEH 231856Z AUTO 00000KT 10SM BKN048 05/M01 A3019 RMK AO2
SLP239 T00501011





000
SAUS46 KPDT 231756
MTRMEH
METAR KMEH 231756Z AUTO 00000KT 10SM FEW042 BKN110 03/M01 A3020 RMK
AO2 SLP245 T00331006 10033 20017 50003





000
SAUS46 KPDT 231657
MTRMEH
METAR KMEH 231656Z AUTO 00000KT 10SM SCT040 BKN050 OVC100 02/00
A3020 RMK AO2 SLP249 T00170000





000
SAUS46 KPDT 231558
MTRMEH
METAR KMEH 231556Z AUTO 00000KT 10SM BKN046 BKN070 OVC110 02/M01
A3019 RMK AO2 SLP245 T00171006





000
SAUS46 KPDT 231456
MTRMEH
METAR KMEH 231456Z AUTO 10SM FEW030 SCT080 OVC100 02/M02 A3019 RMK
AO2 SLP244 T00221017 53003





000
SAUS46 KPDT 231437
MTRMEH
SPECI KMEH 231434Z AUTO VRB04KT 10SM BKN030 BKN039 OVC100 02/M02
A3019 RMK AO2 T00221017





000
SAUS46 KPDT 231357
MTRMEH
METAR KMEH 231356Z AUTO VRB03KT 9SM BKN025 OVC033 03/M02 A3019 RMK
AO2 SLP241 T00281017





000
SAUS46 KPDT 231257
MTRMEH
METAR KMEH 231256Z AUTO VRB03KT 10SM FEW024 BKN050 OVC060 02/M02
A3018 RMK AO2 SLP241 T00221017





000
SAUS46 KPDT 231252
MTRMEH
SPECI KMEH 231251Z AUTO VRB04KT 10SM SCT024 BKN037 OVC049 02/M02
A3018 RMK AO2





000
SAUS46 KPDT 231158
MTRMEH
METAR KMEH 231156Z AUTO VRB04KT 10SM OVC025 02/M02 A3017 RMK AO2
SLP237 70066 T00221017 10022 20011 51016





000
SAUS46 KPDT 231056
MTRMEH
METAR KMEH 231056Z AUTO VRB03KT 10SM OVC025 02/M02 A3016 RMK AO2
SLP233 T00221017





000
SAUS46 KPDT 230957
MTRMEH
METAR KMEH 230956Z AUTO 10SM BKN024 OVC032 02/M02 A3014 RMK AO2
SLP226 T00221017





000
SAUS46 KPDT 230957
MTRMEH
METAR KMEH 230956Z AUTO 10SM BKN024 OVC032 02/M02 A3014 RMK AO2
SLP226 T00221017





000
SAUS46 KPDT 230915
MTRMEH
SPECI KMEH 230915Z AUTO VRB03KT 10SM BKN026 OVC065 02/M01 A3013 RMK
AO2 T00171011





000
SAUS46 KPDT 230858
MTRMEH
METAR KMEH 230856Z AUTO VRB04KT 10SM FEW024 BKN060 OVC070 02/M02
A3012 RMK AO2 SLP219 T00171017 51020





000
SAUS46 KPDT 230837
MTRMEH
SPECI KMEH 230837Z AUTO VRB03KT 10SM SCT024 BKN035 OVC060 02/M02
A3012 RMK AO2 T00171017





000
SAUS46 KPDT 230803 COR
MTRMEH
METAR KMEH 230756Z AUTO VRB03KT 10SM BKN020 BKN030 OVC095 02/M02
A3012 RMK AO2 SLP215 T00171017 400720011





000
SAUS46 KPDT 230658
MTRMEH
METAR KMEH 230656Z AUTO VRB03KT 10SM BKN024 BKN120 01/M02 A3009 RMK
AO2 SLP204 T00111017





000
SAUS46 KPDT 230654 COR
MTRMEH
SPECI KMEH 230647Z AUTO VRB03KT 10SM BKN022 01/M02 A3008 RMK AO2
T00111017





000
SAUS46 KPDT 230605
MTRMEH
SPECI KMEH 230603Z AUTO 10SM FEW022 01/M02 A3006 RMK AO2 T00111017





000
SAUS46 KPDT 230603 COR
MTRMEH
METAR KMEH 230556Z AUTO VRB04KT 10SM BKN023 01/M02 A3006 RMK AO2
SLP196 60012 T00111017 10017 20011 53019





000
SAUS46 KPDT 230457
MTRMEH
METAR KMEH 230456Z AUTO VRB04KT 10SM BKN020 OVC033 01/M01 A3003 RMK
AO2 SLP187 T00111011





000
SAUS46 KPDT 230457
MTRMEH
METAR KMEH 230456Z AUTO VRB04KT 10SM BKN020 OVC033 01/M01 A3003 RMK
AO2 SLP187 T00111011





000
SAUS46 KPDT 230358
MTRMEH
METAR KMEH 230356Z AUTO VRB04KT 10SM BKN015 BKN024 OVC028 01/M01
A3000 RMK AO2 SLP176 T00111006





000
SAUS46 KPDT 230358
MTRMEH
METAR KMEH 230356Z AUTO VRB04KT 10SM BKN015 BKN024 OVC028 01/M01
A3000 RMK AO2 SLP176 T00111006





000
SAUS46 KPDT 230354
MTRMEH
SPECI KMEH 230353Z AUTO VRB04KT 10SM BKN015 01/M01 A2999 RMK AO2





000
SAUS46 KPDT 230256
MTRMEH
METAR KMEH 230256Z AUTO VRB04KT 10SM BKN014 BKN020 OVC026 01/00
A2996 RMK AO2 SLP166 60012 T00110000 53039





000
SAUS46 KPDT 230232 COR
MTRMEH
SPECI KMEH 230225Z AUTO VRB04G17KT 10SM FEW008 BKN012 OVC022 01/00
A2994 RMK AO2 T00110000





000
SAUS46 KPDT 230156
MTRMEH
METAR KMEH 230156Z AUTO 29007G15KT 210V340 10SM OVC008 02/00 A2993
RMK AO2 RAB0057E01B27E28SNB01E42 CIG 007V014 SLP154 P0006 T00170000





000
SAUS46 KPDT 230128
MTRMEH
SPECI KMEH 230128Z AUTO VRB05KT 6SM -SN BR OVC008 01/00 A2990 RMK
AO2 RAB0057E01B27E28SNB01 CIG 007V012 P0004 T00110000





000
SAUS46 KPDT 230103 COR
MTRMEH
METAR KMEH 230056Z AUTO 27008G17KT 210V320 10SM BKN012 OVC019 01/00
A2987 RMK AO2 SNE48 SLP129 P0006 T00110000





000
SAUS46 KPDT 230038 COR
MTRMEH
SPECI KMEH 230031Z AUTO 27008KT 210V310 3SM -SN BR BKN011 OVC025
01/00 A2985 RMK AO2 P0006 T00110000





000
SAUS46 KPDT 230025
MTRMEH
SPECI KMEH 230023Z AUTO VRB04KT 1SM -SN BR BKN011 OVC014 01/00 A2985
RMK AO2 P0005 T00110000





000
SAUS46 KPDT 230018 COR
MTRMEH
SPECI KMEH 230013Z AUTO VRB05KT 3/4SM -SN BR BKN009 OVC014 01/00
A2984 RMK AO2 P0003 T00110000





000
SAUS46 KPDT 230002
MTRMEH
SPECI KMEH 230002Z AUTO VRB05KT 1 3/4SM -SN BR BKN013 OVC019 01/00
A2984 RMK AO2 P0001 T00110000





000
SAUS46 KPDT 222357
MTRMEH
METAR KMEH 222356Z AUTO VRB06KT 5SM -SN BR BKN013 BKN018 OVC028
02/00 A2984 RMK AO2 RAE17UPB33E35SNB35 SLP118 P0003 60022 T00170000
10044 20017 53019





000
SAUS46 KPDT 222350
MTRMEH
SPECI KMEH 222349Z AUTO VRB06KT 7SM -SN BKN013 BKN017 OVC031 02/00
A2983 RMK AO2 RAE17UPB33E35SNB35 P0003 T00170000





000
SAUS46 KPDT 222325 COR
MTRMEH
SPECI KMEH 222318Z AUTO VRB05G17KT 10SM FEW013 BKN019 OVC050 02/01
A2982 RMK AO2 RAE17 P0003 T00220011





000
SAUS46 KPDT 222312 COR
MTRMEH
SPECI KMEH 222305Z AUTO 27008KT 170V070 2 1/2SM RA BR SCT013 BKN018
OVC023 02/01 A2981 RMK AO2 P0001 T00220006





000
SAUS46 KPDT 222258
MTRMEH
METAR KMEH 222256Z AUTO 00000KT 3SM -RA BR OVC013 02/01 A2979 RMK
AO2 RAB2157SNE2157 SLP103 P0009 T00170006





000
SAUS46 KPDT 222246
MTRMEH
SPECI KMEH 222245Z AUTO VRB04KT 1 1/4SM RA BR BKN013 OVC019 02/01
A2979 RMK AO2 RAB2157SNE2157 P0006 T00170006





000
SAUS46 KPDT 222243 COR
MTRMEH
SPECI KMEH 222236Z AUTO VRB04KT 1 3/4SM RA BR SCT013 BKN020 OVC031
02/01 A2979 RMK AO2 VIS 1V3 RAB2157SNE2157 P0002 T00220006





000
SAUS46 KPDT 222207
MTRMEH
SPECI KMEH 222205Z AUTO 00000KT 10SM -RA SCT009 BKN018 OVC026 02/01
A2978 RMK AO2 RAB2157SNE2157 P0000 T00170006





000
SAUS46 KPDT 222157
MTRMEH
METAR KMEH 222156Z AUTO VRB03KT 2 1/2SM -SN BR FEW009 BKN021 OVC029
02/01 A2978 RMK AO2 VIS 1 1/4V5 RAE48SNB48 SLP096 P0010 T00170006





000
SAUS46 KPDT 222157
MTRMEH
METAR KMEH 222156Z AUTO VRB03KT 2 1/2SM -SN BR FEW009 BKN021 OVC029
02/01 A2978 RMK AO2 VIS 1 1/4V5 RAE48SNB48 SLP096 P0010 T00170006





000
SAUS46 KPDT 222154
MTRMEH
SPECI KMEH 222153Z AUTO 00000KT 1 3/4SM -SN BR FEW009 BKN021 OVC027
02/01 A2978 RMK AO2 RAE48SNB48 P0008





000
SAUS46 KPDT 222154
MTRMEH
SPECI KMEH 222153Z AUTO 00000KT 1 3/4SM -SN BR FEW009 BKN021 OVC027
02/01 A2978 RMK AO2 RAE48SNB48 P0008





000
SAUS46 KPDT 222141
MTRMEH
SPECI KMEH 222140Z AUTO VRB04KT 1 1/4SM RA BR FEW009 BKN012 OVC018
02/01 A2978 RMK AO2 P0005 T00170006





000
SAUS46 KPDT 222137
MTRMEH
SPECI KMEH 222137Z AUTO 00000KT 1 3/4SM +RA BR OVC016 02/01 A2978
RMK AO2 P0004 T00170011





000
SAUS46 KPDT 222126
MTRMEH
SPECI KMEH 222126Z AUTO 00000KT 5SM -RA BR BKN016 OVC023 02/01 A2977
RMK AO2 P0003 T00220011





000
SAUS46 KPDT 222117
MTRMEH
SPECI KMEH 222117Z AUTO 00000KT 2 1/2SM -RA BR BKN015 BKN024 OVC030
02/01 A2977 RMK AO2 P0002 T00220011





000
SAUS46 KPDT 222056
MTRMEH
METAR KMEH 222056Z AUTO 00000KT 10SM -RA BKN026 BKN032 OVC048 03/02
A2976 RMK AO2 RAB48 SLP088 P0000 60000 T00280017 58003





000
SAUS46 KPDT 221958
MTRMEH
METAR KMEH 221956Z AUTO 00000KT 10SM FEW025 BKN080 OVC095 04/01
A2977 RMK AO2 SLP087 T00390006





000
SAUS46 KPDT 221953 COR
MTRMEH
SPECI KMEH 221946Z AUTO 00000KT 10SM SCT023 OVC095 04/01 A2977 RMK
AO2 T00390006





000
SAUS46 KPDT 221857
MTRMEH
METAR KMEH 221856Z AUTO VRB03KT 10SM BKN019 04/01 A2977 RMK AO2
SLP092 T00390011





000
SAUS46 KPDT 221852
MTRMEH
SPECI KMEH 221851Z AUTO 00000KT 10SM BKN019 03/01 A2977 RMK AO2





000
SAUS46 KPDT 221758
MTRMEH
METAR KMEH 221756Z AUTO 00000KT 10SM SCT023 03/01 A2977 RMK AO2
SLP092 60032 T00280011 10033 20011 51026





000
SAUS46 KPDT 221657
MTRMEH
METAR KMEH 221656Z AUTO VRB03KT 10SM FEW012 SCT017 02/01 A2975 RMK
AO2 SLP087 T00220006





000
SAUS46 KPDT 221645
MTRMEH
SPECI KMEH 221644Z AUTO VRB04KT 10SM SCT012 BKN018 02/01 A2974 RMK
AO2 T00220006





000
SAUS46 KPDT 221557
MTRMEH
METAR KMEH 221556Z AUTO 27006KT 10SM BKN010 OVC016 02/01 A2972 RMK
AO2 CIG 007V013 SLP080 T00220011





000
SAUS46 KPDT 221526
MTRMEH
SPECI KMEH 221524Z AUTO VRB05KT 10SM BKN010 OVC015 02/01 A2970 RMK
AO2 T00220011





000
SAUS46 KPDT 221458
MTRMEH
METAR KMEH 221456Z AUTO 00000KT 10SM OVC008 02/01 A2968 RMK AO2
RAB40E45SNE40 SLP066 P0008 60032 T00170006 51019





000
SAUS46 KPDT 221440 COR
MTRMEH
SPECI KMEH 221433Z AUTO VRB03KT 3SM -SN BR BKN008 OVC014 01/01 A2966
RMK AO2 P0008 T00110006





000
SAUS46 KPDT 221425
MTRMEH
SPECI KMEH 221424Z AUTO VRB04KT 3SM -SN BR SCT008 OVC016 01/01 A2966
RMK AO2 P0007 T00110006





000
SAUS46 KPDT 221422
MTRMEH
SPECI KMEH 221421Z AUTO 00000KT 2SM -SN BR SCT008 OVC014 01/01 A2966
RMK AO2 P0007 T00110006





000
SAUS46 KPDT 221403 COR
MTRMEH
METAR KMEH 221356Z AUTO 00000KT 1SM -SN BR VV009 01/01 A2967 RMK AO2
RAE32SNB32 SLP062 P0020 T00110006





000
SAUS46 KPDT 221345
MTRMEH
SPECI KMEH 221343Z AUTO VRB04KT 1 1/4SM -SN BR OVC011 02/01 A2966
RMK AO2 RAE32SNB32 P0015 T00170006





000
SAUS46 KPDT 221343 COR
MTRMEH
SPECI KMEH 221336Z AUTO 2SM -SN BR OVC011 02/01 A2966 RMK AO2 VIS 1
1/2V3 RAE32SNB32 P0012 T00170006





000
SAUS46 KPDT 221330
MTRMEH
SPECI KMEH 221328Z AUTO VRB04KT 2 1/2SM RA BR BKN009 OVC013 02/01
A2966 RMK AO2 P0009 T00170011





000
SAUS46 KPDT 221308
MTRMEH
SPECI KMEH 221306Z AUTO VRB04KT 4SM RA BR BKN007 OVC011 03/02 A2964
RMK AO2 P0002 T00280017





000
SAUS46 KPDT 221256
MTRMEH
METAR KMEH 221256Z AUTO VRB06KT 4SM -RA BR OVC010 03/02 A2963 RMK
AO2 SLP049 P0004 T00280017





000
SAUS46 KPDT 221203 COR
MTRMEH
METAR KMEH 221156Z AUTO 00000KT 5SM -RA BR OVC013 03/03 A2962 RMK
AO2 RAB48 SLP042 P0000 60038 70075 T00330028 10072 20028 50009





000
SAUS46 KPDT 221158 COR
MTRMEH
METAR KMEH 221156Z AUTO 00000KT 5SM -RA BR OVC013 03/03 A2962 RMK
AO2 RAB48 SLP042 P0000 60038 70075 T00330028 10072 20028 50009





000
SAUS46 KPDT 221157 COR
MTRMEH
METAR KMEH 221156Z AUTO 00000KT 5SM -RA BR OVC013 03/03 A2962 RMK
AO2 RAB48 SLP042 P0000 60038 70075 T00330028 10072 20028 50009





000
SAUS46 KPDT 221104
MTRMEH
SPECI KMEH 221103Z AUTO 00000KT 10SM BKN013 OVC017 04/03 A2962 RMK
AO2 T00390028





000
SAUS46 KPDT 221057
MTRMEH
METAR KMEH 221056Z AUTO 00000KT 10SM OVC016 04/03 A2962 RMK AO2
RAE48 SLP040 P0006 T00390028





000
SAUS46 KPDT 221003 COR
MTRMEH
METAR KMEH 220956Z AUTO VRB06KT 4SM RA BR BKN011 OVC019 04/03 A2962
RMK AO2 SLP037 P0014 T00440033





000
SAUS46 KPDT 221003 COR
MTRMEH
METAR KMEH 220956Z AUTO VRB06KT 4SM RA BR BKN011 OVC019 04/03 A2962
RMK AO2 SLP037 P0014 T00440033





000
SAUS46 KPDT 220940
MTRMEH
SPECI KMEH 220940Z AUTO VRB06G16KT 5SM -RA BR BKN011 OVC019 04/03
A2961 RMK AO2 P0011 T00440033





000
SAUS46 KPDT 220940
MTRMEH
SPECI KMEH 220940Z AUTO VRB06G16KT 5SM -RA BR BKN011 OVC019 04/03
A2961 RMK AO2 P0011 T00440033





000
SAUS46 KPDT 220934
MTRMEH
SPECI KMEH 220933Z AUTO VRB06G16KT 4SM RA BR SCT009 BKN015 OVC021
05/03 A2961 RMK AO2 P0010 T00500033





000
SAUS46 KPDT 220910
MTRMEH
SPECI KMEH 220909Z AUTO 00000KT 3SM RA BR BKN007 OVC012 05/04 A2959
RMK AO2 P0005 T00500044





000
SAUS46 KPDT 220857
MTRMEH
METAR KMEH 220856Z AUTO 2SM RA BR BKN007 OVC016 06/05 A2959 RMK AO2
SLP024 P0017 60018 T00560050 53020





000
SAUS46 KPDT 220854 COR
MTRMEH
SPECI KMEH 220847Z AUTO VRB04KT 2SM RA BR OVC007 06/05 A2958 RMK AO2
P0013 T00560050





000
SAUS46 KPDT 220836
MTRMEH
SPECI KMEH 220836Z AUTO VRB06KT 3SM RA BR BKN007 BKN011 OVC025 06/05
A2957 RMK AO2 P0009 T00610050





000
SAUS46 KPDT 220830
MTRMEH
SPECI KMEH 220829Z AUTO 00000KT 2 1/2SM RA BR SCT007 BKN011 OVC030
06/05 A2957 RMK AO2 P0007 T00610050





000
SAUS46 KPDT 220822
MTRMEH
SPECI KMEH 220822Z AUTO 00000KT 3SM RA BR FEW009 BKN029 OVC036 07/05
A2957 RMK AO2 PRESRR P0004 T00670050





000
SAUS46 KPDT 220757
MTRMEH
METAR KMEH 220756Z AUTO VRB04KT 10SM -RA OVC037 07/05 A2951 RMK AO2
RAB14 SLP998 P0000 T00720050 400721011





000
SAUS46 KPDT 220705 COR
MTRMEH
METAR KMEH 220656Z AUTO 00000KT 10SM SCT027 BKN032 OVC042 03/02
A2953 RMK AO2 RAB15E34 SLP007 P0001 T00330022





000
SAUS46 KPDT 220657 COR
MTRMEH
METAR KMEH 220656Z AUTO 00000KT 10SM SCT027 BKN032 OVC042 03/02
A2953 RMK AO2 RAB15E34 SLP007 P0001 T00330022





000
SAUS46 KPDT 220657
MTRMEH
METAR KMEH 220656Z AUTO 00000KT 10SM SCT027 BKN032 OVC042 03/02
A2953 RMK AO2 RAB15E34 SLP007 P0001 T00330022





000
SAUS46 KPDT 220557
MTRMEH
METAR KMEH 220556Z AUTO 00000KT 10SM SCT032 OVC045 04/02 A2952 RMK
AO2 SLP005 60036 T00390017 10039 20011 56023





000
SAUS46 KPDT 220457
MTRMEH
METAR KMEH 220456Z AUTO VRB05KT 10SM OVC047 03/02 A2954 RMK AO2
SLP015 T00280017





000
SAUS46 KPDT 220356
MTRMEH
METAR KMEH 220356Z AUTO 00000KT 10SM OVC048 02/01 A2957 RMK AO2
RAB19E32 SLP027 P0000 T00220011





000
SAUS46 KPDT 220356
MTRMEH
METAR KMEH 220356Z AUTO 00000KT 10SM OVC048 02/01 A2957 RMK AO2
RAB19E32 SLP027 P0000 T00220011





000
SAUS46 KPDT 220257
MTRMEH
METAR KMEH 220256Z AUTO VRB03KT 8SM SCT009 BKN037 OVC045 02/01 A2960
RMK AO2 RAE27 SLP038 P0009 60036 T00170006 58024





000
SAUS46 KPDT 220223 COR
MTRMEH
SPECI KMEH 220216Z AUTO 00000KT 3SM -RA BR FEW008 BKN030 OVC040
02/01 A2962 RMK AO2 P0009 T00170006





000
SAUS46 KPDT 220156
MTRMEH
METAR KMEH 220156Z AUTO 00000KT 1 1/2SM RA BR FEW007 BKN030 OVC037
02/01 A2962 RMK AO2 RAB0058SNE0058 SLP047 P0018 T00170006





000
SAUS46 KPDT 220129
MTRMEH
SPECI KMEH 220129Z AUTO 00000KT 2 1/2SM RA BR FEW009 FEW012 OVC035
01/01 A2964 RMK AO2 RAB0058SNE0058 P0008 T00110006





000
SAUS46 KPDT 220119
MTRMEH
SPECI KMEH 220119Z AUTO 00000KT 3SM RA BR FEW009 SCT025 OVC034 01/01
A2965 RMK AO2 RAB0058SNE0058 P0006 T00110006





000
SAUS46 KPDT 220058
MTRMEH
METAR KMEH 220056Z AUTO VRB03KT 2 1/2SM -SN BR FEW008 SCT019 OVC023
01/00 A2967 RMK AO2 RAE32SNB32 SLP066 P0009 T00110000





000
SAUS46 KPDT 220053
MTRMEH
SPECI KMEH 220052Z AUTO VRB03KT 2 1/2SM -SN BR FEW008 SCT019 OVC023
01/00 A2967 RMK AO2 RAE32SNB32 P0008





000
SAUS46 KPDT 220020
MTRMEH
SPECI KMEH 220020Z AUTO VRB03KT 2 1/2SM RA BR OVC028 02/00 A2970 RMK
AO2 P0002 T00170000





000
SAUS46 KPDT 220003 COR
MTRMEH
METAR KMEH 212356Z AUTO 00000KT 5SM -RA BR BKN037 OVC045 02/00 A2970
RMK AO2 RAB23 SLP074 P0001 60001 T00220000 10061 20022 56029





000
SAUS46 KPDT 212256
MTRMEH
METAR KMEH 212256Z AUTO 00000KT 10SM BKN060 OVC095 04/M01 A2972 RMK
AO2 SLP080 T00391006





000
SAUS46 KPDT 212203 COR
MTRMEH
METAR KMEH 212156Z AUTO VRB03KT 10SM SCT100 05/M01 A2976 RMK AO2
SLP091 T00501006





000
SAUS46 KPDT 212058
MTRMEH
METAR KMEH 212056Z AUTO VRB03KT 10SM BKN100 05/00 A2979 RMK AO2
SLP105 T00500000 56025





000
SAUS46 KPDT 211958
MTRMEH
METAR KMEH 211956Z AUTO 00000KT 10SM CLR 05/00 A2982 RMK AO2 SLP112
T00500000





000
SAUS46 KPDT 211857
MTRMEH
METAR KMEH 211856Z AUTO 00000KT 10SM CLR 04/M01 A2985 RMK AO2 SLP126
T00441006





000
SAUS46 KPDT 211757
MTRMEH
METAR KMEH 211756Z AUTO 00000KT 10SM CLR 04/M01 A2988 RMK AO2 SLP133
T00391006 10039 21006 56012





000
SAUS46 KPDT 211657
MTRMEH
METAR KMEH 211656Z AUTO 00000KT 10SM BKN055 02/M01 A2989 RMK AO2
SLP139 T00221006





000
SAUS46 KPDT 211557
MTRMEH
METAR KMEH 211556Z AUTO 00000KT 9SM OVC055 01/M01 A2991 RMK AO2
SLP146 T00111006





000
SAUS46 KPDT 211557
MTRMEH
METAR KMEH 211556Z AUTO 00000KT 9SM OVC055 01/M01 A2991 RMK AO2
SLP146 T00111006





000
SAUS46 KPDT 211503 COR
MTRMEH
METAR KMEH 211456Z AUTO 00000KT 9SM OVC050 01/M01 A2992 RMK AO2
SLP150 T00111011 55004





    US Dept of Commerce
    National Oceanic and Atmospheric Administration
    National Weather Service
    1325 East West Highway
    Silver Spring, MD 20910
    Page Author: NWS Internet Services Team
Disclaimer
Information Quality
Credits
Glossary
Privacy Policy
Freedom of Information Act (FOIA)
About Us
Career Opportunities